Time;durP1;ratioP1;P1;durP2;ratioP2;P2;SDS_P1;SDS_P2;PMS_P1;PMS_P2;Temp;Humidity;BMP_temperature;BMP_pressure;BME280_temperature;BME280_humidity;BME280_pressure;Samples;Min_cycle;Max_cycle;Signal;HPM_P1;HPM_P2
2021/07/14 00:00:53;;;;;;;20.08;16.75;;;26.90;74.70;;;;;;5053440;28;20043;-73
2021/07/14 00:03:19;;;;;;;19.50;16.60;;;26.80;75.20;;;;;;5053647;28;20029;-72
2021/07/14 00:05:44;;;;;;;29.40;18.02;;;26.80;75.50;;;;;;5053541;28;20025;-72
2021/07/14 00:08:10;;;;;;;19.75;16.85;;;26.80;75.90;;;;;;5053151;28;20025;-72
2021/07/14 00:10:36;;;;;;;18.92;15.43;;;26.80;75.70;;;;;;5054041;28;20106;-72
2021/07/14 00:24:01;;;;;;;22.25;17.90;;;26.70;76.10;;;;;;5052888;28;20071;-78
2021/07/14 00:26:27;;;;;;;24.98;20.23;;;26.70;76.00;;;;;;5053352;28;20498;-72
2021/07/14 00:28:53;;;;;;;25.00;19.90;;;26.60;76.40;;;;;;5053345;28;20467;-72
2021/07/14 00:31:19;;;;;;;27.45;18.88;;;26.60;76.50;;;;;;5053845;28;20059;-72
2021/07/14 00:33:46;;;;;;;20.70;17.48;;;26.60;76.50;;;;;;5053298;28;20036;-72
2021/07/14 00:36:12;;;;;;;25.00;17.33;;;26.50;76.40;;;;;;5052914;28;20512;-72
2021/07/14 00:38:38;;;;;;;24.05;16.98;;;26.50;76.10;;;;;;5053209;28;20095;-72
2021/07/14 00:41:05;;;;;;;23.63;19.65;;;26.50;75.90;;;;;;5053225;28;20028;-72
2021/07/14 00:43:32;;;;;;;23.70;18.08;;;26.50;75.90;;;;;;5053020;28;20540;-72
2021/07/14 00:46:18;;;;;;;27.63;20.55;;;26.50;75.90;;;;;;5053508;28;20383;-72
2021/07/14 00:48:45;;;;;;;25.50;19.45;;;26.50;76.30;;;;;;5053710;28;20116;-72
2021/07/14 00:51:11;;;;;;;21.13;15.80;;;26.40;76.20;;;;;;5053728;28;20427;-72
2021/07/14 00:53:36;;;;;;;21.35;16.92;;;26.40;76.00;;;;;;5053356;28;20124;-72
2021/07/14 00:56:04;;;;;;;25.45;19.60;;;26.40;75.90;;;;;;5053479;28;20028;-72
2021/07/14 00:58:32;;;;;;;24.45;18.90;;;26.40;75.90;;;;;;5053421;28;20438;-72
2021/07/14 01:00:58;;;;;;;23.70;17.65;;;26.30;75.90;;;;;;5053072;28;20386;-72
2021/07/14 01:03:29;;;;;;;25.85;19.70;;;26.30;75.90;;;;;;5052810;28;20433;-72
2021/07/14 01:05:57;;;;;;;22.85;18.05;;;26.30;76.20;;;;;;5053344;28;20079;-72
2021/07/14 01:08:46;;;;;;;22.10;18.42;;;26.30;76.90;;;;;;5052738;28;20443;-72
2021/07/14 01:11:18;;;;;;;27.45;20.95;;;26.30;76.30;;;;;;5053012;28;20059;-72
2021/07/14 01:14:00;;;;;;;25.00;18.70;;;26.30;76.60;;;;;;5053251;28;20452;-72
2021/07/14 01:16:31;;;;;;;21.77;18.17;;;26.20;76.60;;;;;;5052949;28;20112;-72
2021/07/14 01:19:19;;;;;;;19.08;16.35;;;26.30;76.90;;;;;;5052863;28;20527;-73
2021/07/14 01:21:48;;;;;;;21.20;17.63;;;26.20;76.60;;;;;;5056716;28;20029;-72
2021/07/14 01:24:43;;;;;;;23.45;19.17;;;26.20;76.80;;;;;;5056664;28;20171;-72
2021/07/14 01:27:13;;;;;;;20.48;16.77;;;26.20;77.10;;;;;;5056540;28;20025;-72
2021/07/14 01:29:48;;;;;;;20.10;16.83;;;26.10;77.00;;;;;;5056425;28;20064;-73
2021/07/14 01:32:16;;;;;;;19.77;14.70;;;26.10;77.10;;;;;;5056383;28;20036;-72
2021/07/14 01:34:46;;;;;;;20.40;16.00;;;26.20;77.20;;;;;;5056366;28;20025;-72
2021/07/14 01:37:15;;;;;;;26.15;18.70;;;26.10;77.30;;;;;;5056396;28;20024;-72
2021/07/14 01:39:42;;;;;;;23.75;17.60;;;26.10;77.70;;;;;;5056042;28;20420;-72
2021/07/14 01:42:09;;;;;;;22.83;17.55;;;26.10;77.90;;;;;;5056576;28;20040;-72
2021/07/14 01:44:36;;;;;;;20.00;16.35;;;26.10;78.00;;;;;;5055992;28;20029;-72
2021/07/14 01:47:02;;;;;;;23.10;18.95;;;26.10;78.10;;;;;;5056183;28;20032;-73
2021/07/14 01:49:31;;;;;;;23.05;19.08;;;26.10;78.30;;;;;;5055129;28;20457;-72
2021/07/14 01:52:06;;;;;;;22.58;17.48;;;26.10;78.50;;;;;;5055790;28;20468;-72
2021/07/14 01:54:32;;;;;;;22.20;17.30;;;26.10;78.70;;;;;;5056003;28;20047;-72
2021/07/14 01:57:00;;;;;;;24.85;18.42;;;26.10;78.50;;;;;;5055772;28;20430;-72
2021/07/14 01:59:28;;;;;;;22.02;18.13;;;26.10;78.70;;;;;;5055903;28;20021;-72
2021/07/14 02:01:55;;;;;;;22.38;17.67;;;26.10;78.80;;;;;;5055487;28;20049;-72
2021/07/14 02:04:30;;;;;;;21.67;17.88;;;26.10;78.90;;;;;;5055829;28;20120;-72
2021/07/14 02:07:10;;;;;;;22.90;17.88;;;26.10;79.00;;;;;;5055808;28;20021;-72
2021/07/14 02:09:38;;;;;;;20.95;17.45;;;26.10;78.90;;;;;;5055910;28;20356;-72
2021/07/14 02:12:29;;;;;;;24.90;19.63;;;26.10;78.80;;;;;;5055782;28;20059;-72
2021/07/14 02:14:57;;;;;;;23.45;18.50;;;26.10;78.90;;;;;;5056179;28;20376;-71
2021/07/14 02:17:27;;;;;;;25.42;19.48;;;26.10;78.80;;;;;;5055515;28;20483;-71
2021/07/14 02:20:00;;;;;;;21.65;18.25;;;26.10;78.80;;;;;;5055954;28;20033;-71
2021/07/14 02:22:27;;;;;;;22.83;19.77;;;26.10;78.80;;;;;;5055821;28;20033;-71
2021/07/14 02:24:53;;;;;;;22.38;18.48;;;26.10;78.80;;;;;;5055452;28;20029;-72
2021/07/14 02:27:19;;;;;;;25.13;18.77;;;26.10;78.80;;;;;;5055689;28;20075;-71
2021/07/14 02:29:47;;;;;;;22.17;18.67;;;26.10;78.80;;;;;;5055557;28;20025;-71
2021/07/14 02:32:16;;;;;;;23.63;19.02;;;26.20;78.80;;;;;;5054159;28;20022;-72
2021/07/14 02:34:47;;;;;;;27.02;20.48;;;26.10;78.60;;;;;;5055613;28;20025;-71
2021/07/14 02:37:24;;;;;;;25.05;18.90;;;26.20;78.70;;;;;;5055230;28;20490;-71
2021/07/14 02:39:55;;;;;;;25.63;17.73;;;26.20;78.60;;;;;;5055067;28;20033;-71
2021/07/14 02:42:28;;;;;;;23.25;17.27;;;26.30;78.60;;;;;;5055395;28;20491;-71
2021/07/14 02:44:55;;;;;;;21.73;19.10;;;26.30;78.40;;;;;;5054926;28;20029;-71
2021/07/14 02:47:22;;;;;;;20.05;17.33;;;26.30;78.30;;;;;;5055048;28;20507;-71
2021/07/14 02:49:49;;;;;;;24.75;18.25;;;26.30;78.00;;;;;;5055295;28;20459;-71
2021/07/14 02:52:15;;;;;;;21.85;16.83;;;26.40;78.10;;;;;;5054482;28;20029;-72
2021/07/14 02:54:44;;;;;;;20.27;16.70;;;26.40;77.70;;;;;;5053645;28;20037;-71
2021/07/14 02:57:14;;;;;;;25.80;18.70;;;26.40;77.60;;;;;;5054876;28;20033;-71
2021/07/14 02:59:45;;;;;;;25.60;17.30;;;26.50;77.60;;;;;;5055277;28;20029;-71
2021/07/14 03:02:14;;;;;;;22.45;17.90;;;26.50;77.30;;;;;;5054423;28;20478;-71
2021/07/14 03:04:43;;;;;;;25.63;18.15;;;26.50;77.30;;;;;;5055256;28;20366;-71
2021/07/14 03:07:09;;;;;;;21.65;17.27;;;26.60;77.20;;;;;;5054625;28;20052;-73
2021/07/14 03:09:41;;;;;;;26.02;17.50;;;26.60;77.00;;;;;;5054599;28;20082;-71
2021/07/14 03:12:15;;;;;;;23.38;17.27;;;26.60;76.80;;;;;;5054250;28;20546;-72
2021/07/14 03:14:45;;;;;;;26.00;18.33;;;26.70;76.70;;;;;;5054868;28;20150;-73
2021/07/14 03:17:13;;;;;;;22.25;17.52;;;26.70;76.70;;;;;;5054881;28;20032;-73
2021/07/14 03:19:40;;;;;;;22.65;17.92;;;26.70;76.60;;;;;;5054421;28;20090;-73
2021/07/14 03:22:07;;;;;;;22.33;17.63;;;26.80;76.60;;;;;;5054472;28;20082;-73
2021/07/14 03:24:35;;;;;;;21.08;16.33;;;26.80;76.60;;;;;;5054079;28;20467;-73
2021/07/14 03:27:04;;;;;;;21.10;16.88;;;26.80;76.30;;;;;;5052958;28;20056;-73
2021/07/14 03:29:31;;;;;;;19.33;16.55;;;26.90;76.10;;;;;;5054243;28;20021;-73
2021/07/14 03:31:58;;;;;;;22.58;16.80;;;27.00;76.00;;;;;;5054565;28;20025;-73
2021/07/14 03:34:24;;;;;;;21.30;17.02;;;27.10;75.90;;;;;;5054169;28;20033;-73
2021/07/14 03:36:50;;;;;;;26.58;17.25;;;27.10;75.90;;;;;;5054687;28;20047;-73
2021/07/14 03:39:17;;;;;;;23.77;15.52;;;27.10;75.80;;;;;;5054359;28;20033;-73
2021/07/14 03:41:44;;;;;;;21.05;17.50;;;27.20;75.60;;;;;;5054083;28;20116;-73
2021/07/14 03:44:13;;;;;;;19.48;16.77;;;27.30;75.60;;;;;;5053695;28;20029;-73
2021/07/14 03:46:39;;;;;;;17.17;15.25;;;27.30;75.50;;;;;;5054280;28;20078;-73
2021/07/14 03:49:05;;;;;;;22.67;16.50;;;27.40;75.40;;;;;;5054532;28;20452;-73
2021/07/14 03:51:32;;;;;;;18.00;15.23;;;27.40;75.30;;;;;;5053653;28;20462;-73
2021/07/14 03:53:59;;;;;;;19.45;14.80;;;27.50;75.20;;;;;;5054441;28;20095;-73
2021/07/14 03:56:26;;;;;;;20.88;15.40;;;27.60;75.10;;;;;;5053725;28;20509;-73
2021/07/14 03:58:53;;;;;;;19.00;14.93;;;27.60;74.80;;;;;;5053641;28;20032;-73
2021/07/14 04:01:19;;;;;;;17.38;14.55;;;27.70;74.60;;;;;;5053650;28;20025;-73
2021/07/14 04:03:45;;;;;;;17.75;13.18;;;27.70;74.50;;;;;;5053745;28;20036;-73
2021/07/14 04:06:14;;;;;;;17.95;13.85;;;27.80;74.20;;;;;;5053576;28;20021;-74
2021/07/14 04:08:45;;;;;;;16.25;14.23;;;27.90;74.00;;;;;;5053830;28;20108;-73
2021/07/14 04:11:12;;;;;;;20.95;14.10;;;27.90;73.90;;;;;;5053331;28;20523;-73
2021/07/14 04:13:38;;;;;;;41.20;16.25;;;27.90;73.90;;;;;;5053523;28;20029;-72
2021/07/14 04:16:04;;;;;;;20.02;13.63;;;28.00;73.80;;;;;;5053476;28;20374;-73
2021/07/14 04:18:30;;;;;;;14.63;12.70;;;28.00;73.60;;;;;;5053209;28;20383;-73
2021/07/14 04:20:56;;;;;;;14.95;12.68;;;28.10;73.50;;;;;;5053365;28;20029;-72
2021/07/14 04:23:22;;;;;;;19.10;14.02;;;28.20;73.30;;;;;;5053536;28;20056;-72
2021/07/14 04:25:47;;;;;;;15.85;13.20;;;28.20;73.10;;;;;;5053905;28;20074;-72
2021/07/14 04:28:13;;;;;;;16.40;12.75;;;28.30;72.90;;;;;;5053483;28;20021;-72
2021/07/14 04:30:39;;;;;;;15.55;12.40;;;28.40;72.70;;;;;;5053779;28;20040;-72
2021/07/14 04:33:04;;;;;;;14.18;12.70;;;28.40;72.40;;;;;;5053550;28;20067;-72
2021/07/14 04:35:30;;;;;;;14.90;12.82;;;28.40;72.20;;;;;;5052933;28;20022;-72
2021/07/14 04:37:56;;;;;;;15.52;13.88;;;28.50;72.00;;;;;;5053617;28;20021;-73
2021/07/14 04:40:22;;;;;;;20.25;12.32;;;28.50;71.80;;;;;;5053142;28;20374;-73
2021/07/14 04:42:50;;;;;;;13.80;12.30;;;28.60;71.80;;;;;;5053847;28;20459;-73
2021/07/14 04:45:16;;;;;;;14.13;11.68;;;28.60;71.60;;;;;;5053450;28;20017;-71
2021/07/14 04:47:41;;;;;;;12.68;11.38;;;28.70;71.40;;;;;;5053631;28;20487;-72
2021/07/14 04:50:08;;;;;;;16.38;12.02;;;28.70;71.00;;;;;;5053050;28;20449;-71
2021/07/14 04:52:33;;;;;;;13.85;12.23;;;28.80;70.80;;;;;;5053117;28;20102;-72
2021/07/14 04:54:59;;;;;;;13.68;11.52;;;28.90;70.60;;;;;;5053993;28;20029;-72
2021/07/14 04:57:25;;;;;;;13.70;12.30;;;28.90;70.30;;;;;;5057514;28;20031;-72
2021/07/14 04:59:51;;;;;;;11.80;10.60;;;29.00;70.10;;;;;;5057292;28;20056;-71
2021/07/14 05:02:17;;;;;;;13.85;11.73;;;29.00;69.80;;;;;;5057017;28;20029;-73
2021/07/14 05:04:42;;;;;;;13.68;11.90;;;29.10;69.60;;;;;;5056712;28;20021;-73
2021/07/14 05:07:08;;;;;;;12.70;11.40;;;29.20;69.40;;;;;;5055986;28;20463;-73
2021/07/14 05:09:34;;;;;;;14.45;10.38;;;29.20;69.00;;;;;;5057428;28;20037;-73
2021/07/14 05:11:59;;;;;;;11.65;10.52;;;29.30;69.00;;;;;;5056892;28;20098;-73
2021/07/14 05:14:25;;;;;;;12.48;10.38;;;29.30;69.40;;;;;;5056444;28;20025;-73
2021/07/14 05:16:51;;;;;;;13.20;10.70;;;29.40;68.50;;;;;;5056590;28;20166;-73
2021/07/14 05:19:17;;;;;;;12.02;10.77;;;29.50;68.40;;;;;;5057277;28;20100;-74
2021/07/14 05:21:43;;;;;;;13.57;10.55;;;29.50;68.00;;;;;;5057227;28;20128;-73
2021/07/14 05:24:10;;;;;;;11.77;10.40;;;29.60;67.90;;;;;;5056337;28;20442;-73
2021/07/14 05:26:36;;;;;;;13.63;11.10;;;29.60;67.60;;;;;;5056500;28;20083;-74
2021/07/14 05:29:04;;;;;;;15.88;11.13;;;29.70;67.50;;;;;;5056392;28;20037;-74
2021/07/14 05:31:30;;;;;;;16.35;10.73;;;29.70;67.20;;;;;;5056807;28;20116;-74
2021/07/14 05:33:55;;;;;;;14.43;10.77;;;29.80;67.20;;;;;;5056395;28;20404;-74
2021/07/14 05:36:21;;;;;;;18.60;11.48;;;29.80;67.10;;;;;;5055845;28;20032;-74
2021/07/14 05:38:47;;;;;;;14.23;10.45;;;29.90;67.10;;;;;;5056598;28;20521;-74
2021/07/14 05:41:12;;;;;;;13.18;10.55;;;29.90;66.90;;;;;;5056566;28;20111;-73
2021/07/14 05:43:39;;;;;;;16.63;10.38;;;30.00;66.60;;;;;;5056354;28;20534;-74
2021/07/14 05:46:05;;;;;;;12.80;9.98;;;30.10;66.40;;;;;;5056065;28;20051;-73
2021/07/14 05:48:31;;;;;;;18.88;10.43;;;30.10;65.80;;;;;;5055721;28;20047;-73
2021/07/14 05:50:57;;;;;;;15.48;10.13;;;30.20;65.70;;;;;;5054624;28;20029;-73
2021/07/14 05:53:24;;;;;;;14.77;10.25;;;30.30;65.50;;;;;;5055710;28;20407;-73
2021/07/14 05:55:50;;;;;;;13.32;9.52;;;30.30;65.50;;;;;;5055866;28;20368;-72
2021/07/14 05:58:16;;;;;;;12.48;9.52;;;30.40;65.30;;;;;;5056134;28;20028;-72
2021/07/14 06:00:42;;;;;;;14.45;10.13;;;30.40;64.70;;;;;;5055720;28;20467;-73
2021/07/14 06:03:08;;;;;;;15.05;10.13;;;30.60;65.20;;;;;;5055609;28;20040;-74
2021/07/14 06:05:35;;;;;;;10.48;9.10;;;30.60;64.30;;;;;;5055952;28;20406;-73
2021/07/14 06:08:01;;;;;;;20.45;10.07;;;30.70;64.40;;;;;;5055797;28;20029;-72
2021/07/14 06:10:28;;;;;;;17.65;9.48;;;30.80;63.50;;;;;;5055976;28;20025;-72
2021/07/14 06:12:58;;;;;;;12.45;8.85;;;30.80;62.90;;;;;;5055700;28;20025;-73
2021/07/14 06:15:24;;;;;;;19.65;9.50;;;30.90;62.70;;;;;;5055800;28;20056;-73
2021/07/14 06:17:51;;;;;;;10.05;8.68;;;30.90;62.70;;;;;;5055285;28;20534;-72
2021/07/14 06:20:17;;;;;;;13.57;8.68;;;31.00;62.50;;;;;;5055397;28;20029;-74
2021/07/14 06:22:42;;;;;;;11.63;8.80;;;31.00;62.40;;;;;;5055798;28;20075;-72
2021/07/14 06:25:11;;;;;;;13.18;9.23;;;31.10;62.50;;;;;;5055209;28;20021;-72
2021/07/14 06:27:36;;;;;;;12.02;8.50;;;31.10;62.60;;;;;;5055914;28;20031;-72
2021/07/14 06:30:09;;;;;;;13.93;7.95;;;31.20;62.20;;;;;;5055040;28;20037;-72
2021/07/14 06:32:35;;;;;;;8.27;7.57;;;31.30;61.60;;;;;;5055289;28;20029;-71
2021/07/14 06:35:03;;;;;;;9.25;7.78;;;31.30;61.20;;;;;;5055529;28;20024;-72
2021/07/14 06:37:29;;;;;;;9.45;8.23;;;31.40;61.00;;;;;;5054939;28;20029;-72
2021/07/14 06:39:54;;;;;;;10.30;7.95;;;31.40;60.80;;;;;;5054746;28;20083;-72
2021/07/14 06:42:20;;;;;;;9.88;8.15;;;31.50;60.60;;;;;;5055306;28;20033;-72
2021/07/14 06:44:46;;;;;;;16.65;8.20;;;31.50;60.10;;;;;;5055079;28;20021;-73
2021/07/14 06:47:12;;;;;;;17.63;8.00;;;31.60;59.90;;;;;;5054747;28;20391;-73
2021/07/14 06:49:39;;;;;;;12.48;7.57;;;31.70;59.30;;;;;;5054833;28;20033;-73
2021/07/14 06:52:05;;;;;;;9.15;7.22;;;31.70;59.00;;;;;;5054402;28;20364;-73
2021/07/14 06:54:30;;;;;;;8.57;7.28;;;31.70;58.90;;;;;;5054865;28;20053;-73
2021/07/14 06:56:56;;;;;;;7.70;6.90;;;31.70;58.70;;;;;;5054939;28;20095;-73
2021/07/14 06:59:22;;;;;;;10.35;7.00;;;31.80;58.70;;;;;;5054499;28;20025;-73
2021/07/14 07:01:48;;;;;;;9.25;6.78;;;31.90;58.30;;;;;;5054348;28;20465;-73
2021/07/14 07:04:13;;;;;;;8.40;7.60;;;32.00;58.20;;;;;;5054770;28;20135;-73
2021/07/14 07:06:39;;;;;;;9.00;8.10;;;32.00;58.90;;;;;;5054427;28;20116;-73
2021/07/14 07:09:05;;;;;;;10.43;7.82;;;32.00;58.10;;;;;;5054322;28;20027;-74
2021/07/14 07:11:34;;;;;;;9.27;7.80;;;32.00;57.90;;;;;;5054288;28;20064;-72
2021/07/14 07:14:01;;;;;;;7.72;6.90;;;32.10;57.70;;;;;;5054043;28;20112;-73
2021/07/14 07:16:27;;;;;;;8.32;7.07;;;32.10;57.30;;;;;;5054025;28;20138;-73
2021/07/14 07:18:53;;;;;;;8.52;6.93;;;32.20;57.20;;;;;;5053373;28;20028;-72
2021/07/14 07:21:19;;;;;;;11.35;6.97;;;32.20;57.10;;;;;;5054291;28;20391;-74
2021/07/14 07:23:47;;;;;;;8.90;7.00;;;32.30;57.10;;;;;;5053809;28;20032;-73
2021/07/14 07:26:13;;;;;;;8.20;7.32;;;32.30;57.00;;;;;;5054097;28;20032;-73
2021/07/14 07:28:42;;;;;;;10.32;7.43;;;32.30;57.20;;;;;;5054104;28;20400;-73
2021/07/14 07:31:10;;;;;;;8.38;7.03;;;32.40;57.30;;;;;;5053991;28;20032;-74
2021/07/14 07:33:39;;;;;;;7.97;7.20;;;32.50;56.90;;;;;;5052987;28;20055;-73
2021/07/14 07:36:06;;;;;;;7.93;6.90;;;32.50;56.80;;;;;;5053963;28;20100;-73
2021/07/14 07:38:36;;;;;;;18.17;7.82;;;32.50;56.80;;;;;;5053626;28;20033;-72
2021/07/14 07:41:02;;;;;;;9.85;6.88;;;32.50;56.80;;;;;;5053602;28;20507;-73
2021/07/14 07:43:29;;;;;;;9.13;7.10;;;32.60;56.40;;;;;;5053714;28;20163;-74
2021/07/14 07:45:56;;;;;;;7.38;6.68;;;32.70;56.30;;;;;;5053857;28;20182;-73
2021/07/14 07:48:22;;;;;;;9.32;6.70;;;32.80;55.80;;;;;;5053466;28;20159;-73
2021/07/14 07:50:48;;;;;;;9.30;6.40;;;32.80;55.40;;;;;;5053722;28;20033;-75
2021/07/14 07:53:17;;;;;;;14.02;8.20;;;32.90;54.90;;;;;;5053737;28;20072;-73
2021/07/14 07:55:44;;;;;;;26.13;8.25;;;32.90;55.30;;;;;;5052720;28;20033;-73
2021/07/14 07:58:09;;;;;;;7.57;6.70;;;32.90;55.60;;;;;;5053240;28;20043;-73
2021/07/14 08:00:35;;;;;;;10.13;6.38;;;33.00;55.20;;;;;;5052577;28;20475;-73
2021/07/14 08:03:01;;;;;;;13.90;7.32;;;33.10;54.80;;;;;;5053454;28;20120;-74
2021/07/14 08:05:28;;;;;;;9.02;6.60;;;33.10;54.50;;;;;;5053271;28;20060;-73
2021/07/14 08:07:54;;;;;;;7.85;6.30;;;33.20;54.10;;;;;;5052645;28;20489;-73
2021/07/14 08:10:19;;;;;;;9.13;6.93;;;33.30;53.60;;;;;;5053302;28;20111;-73
2021/07/14 08:12:45;;;;;;;13.75;6.80;;;33.30;53.50;;;;;;5053319;28;20102;-72
2021/07/14 08:15:11;;;;;;;8.93;6.90;;;33.40;53.20;;;;;;5052380;28;20026;-74
2021/07/14 08:17:38;;;;;;;7.57;6.68;;;33.50;53.40;;;;;;5052582;28;20082;-73
2021/07/14 08:20:06;;;;;;;12.82;6.80;;;33.50;53.20;;;;;;5067822;28;20035;-71
2021/07/14 08:22:32;;;;;;;9.18;6.57;;;33.60;52.70;;;;;;5053106;28;20048;-73
2021/07/14 08:24:58;;;;;;;12.88;6.53;;;33.70;52.40;;;;;;5052563;28;20026;-73
2021/07/14 08:27:24;;;;;;;10.82;6.75;;;33.80;52.40;;;;;;5067997;28;20098;-73
2021/07/14 08:29:51;;;;;;;12.63;6.50;;;33.90;52.30;;;;;;5051255;28;20071;-74
2021/07/14 08:32:17;;;;;;;10.95;6.95;;;34.00;51.90;;;;;;5052774;28;20032;-73
2021/07/14 08:34:43;;;;;;;10.38;6.30;;;34.20;51.20;;;;;;5052286;28;20025;-73
2021/07/14 08:37:09;;;;;;;11.18;6.82;;;34.30;50.90;;;;;;5052212;28;20082;-74
2021/07/14 08:39:35;;;;;;;8.63;6.63;;;34.50;50.60;;;;;;5052139;28;20430;-72
2021/07/14 08:42:02;;;;;;;8.48;6.35;;;34.70;50.40;;;;;;5052317;28;20037;-72
2021/07/14 08:44:28;;;;;;;9.52;6.57;;;34.90;49.90;;;;;;5052186;28;20033;-72
2021/07/14 08:46:55;;;;;;;13.90;7.05;;;35.00;49.20;;;;;;5052214;28;20025;-74
2021/07/14 08:49:21;;;;;;;9.02;6.20;;;35.30;48.70;;;;;;5052152;28;20040;-73
2021/07/14 08:51:51;;;;;;;11.38;6.63;;;35.40;48.20;;;;;;5052619;28;20032;-74
2021/07/14 08:54:17;;;;;;;12.23;6.82;;;35.60;48.10;;;;;;5011874;28;1203411;-73
2021/07/14 08:56:42;;;;;;;9.73;6.80;;;35.80;47.50;;;;;;5053005;28;20033;-73
2021/07/14 08:59:09;;;;;;;9.40;6.05;;;36.00;47.40;;;;;;5052958;28;20025;-75
2021/07/14 09:01:34;;;;;;;10.43;5.97;;;36.20;47.00;;;;;;5053181;28;20052;-72
2021/07/14 09:04:03;;;;;;;8.05;5.97;;;36.40;46.80;;;;;;5053163;28;20064;-73
2021/07/14 09:06:31;;;;;;;17.75;6.65;;;36.60;46.30;;;;;;5052838;28;20029;-73
2021/07/14 09:08:56;;;;;;;9.63;5.80;;;36.80;46.00;;;;;;5052683;28;20490;-73
2021/07/14 09:11:22;;;;;;;9.82;5.68;;;37.00;45.60;;;;;;5053224;28;20037;-73
2021/07/14 09:13:48;;;;;;;6.47;5.72;;;37.20;45.10;;;;;;5053394;28;20079;-73
2021/07/14 09:16:36;;;;;;;7.30;5.90;;;37.40;45.00;;;;;;5052836;28;20375;-73
2021/07/14 09:19:14;;;;;;;6.65;5.95;;;37.60;45.00;;;;;;5052460;28;20383;-73
2021/07/14 09:21:43;;;;;;;9.20;6.80;;;37.80;45.10;;;;;;5052487;28;20060;-72
2021/07/14 09:24:27;;;;;;;11.93;7.00;;;37.90;45.20;;;;;;5052876;28;20375;-74
2021/07/14 09:26:54;;;;;;;8.40;6.82;;;38.10;45.00;;;;;;5052785;28;20083;-73
2021/07/14 09:29:20;;;;;;;9.88;7.18;;;38.30;45.10;;;;;;5052653;28;20053;-73
2021/07/14 09:31:47;;;;;;;11.30;7.80;;;38.50;44.90;;;;;;5052634;28;20083;-73
2021/07/14 09:34:22;;;;;;;11.70;7.82;;;38.70;44.70;;;;;;5052251;28;20086;-73
2021/07/14 09:36:48;;;;;;;8.43;6.88;;;39.00;44.60;;;;;;5052259;28;20033;-73
2021/07/14 09:39:14;;;;;;;8.20;7.03;;;39.20;44.30;;;;;;5052298;28;20032;-73
2021/07/14 09:41:42;;;;;;;13.95;8.30;;;39.30;44.20;;;;;;5054304;28;20052;-73
2021/07/14 09:44:23;;;;;;;10.82;7.70;;;39.50;43.90;;;;;;5056081;28;20032;-73
2021/07/14 09:47:09;;;;;;;10.63;6.63;;;39.60;43.20;;;;;;5056562;28;20067;-75
2021/07/14 09:49:35;;;;;;;9.77;6.55;;;39.70;42.80;;;;;;5055890;28;20040;-74
2021/07/14 09:52:19;;;;;;;22.23;7.32;;;40.00;42.60;;;;;;5055828;28;20021;-74
2021/07/14 09:54:45;;;;;;;9.50;6.55;;;40.20;42.20;;;;;;5056767;28;20080;-74
2021/07/14 09:57:16;;;;;;;14.75;6.78;;;40.30;41.90;;;;;;5056055;28;20028;-74
2021/07/14 09:59:42;;;;;;;10.50;7.18;;;40.60;41.90;;;;;;5055685;28;20025;-74
2021/07/14 10:02:16;;;;;;;8.75;6.75;;;40.80;41.60;;;;;;5055726;28;20033;-74
2021/07/14 10:04:42;;;;;;;8.00;7.20;;;41.00;41.50;;;;;;5055984;28;20055;-74
2021/07/14 10:07:11;;;;;;;13.55;7.10;;;41.00;41.60;;;;;;5055718;28;20481;-74
2021/07/14 10:09:39;;;;;;;12.65;6.80;;;41.30;42.30;;;;;;5055557;28;20036;-75
2021/07/14 10:12:44;;;;;;;54.05;10.32;;;41.40;41.00;;;;;;5055618;28;20111;-74
2021/07/14 10:15:15;;;;;;;7.22;6.35;;;41.70;41.10;;;;;;5033421;28;20029;-73
2021/07/14 10:17:49;;;;;;;14.93;6.50;;;41.80;40.60;;;;;;5033270;28;20538;-74
2021/07/14 10:20:21;;;;;;;8.35;6.47;;;42.00;40.40;;;;;;5045281;28;20037;-73
2021/07/14 10:22:48;;;;;;;12.98;7.45;;;42.10;40.30;;;;;;5055680;28;20036;-75
2021/07/14 10:25:15;;;;;;;18.73;6.97;;;42.10;40.00;;;;;;5055415;28;20025;-73
2021/07/14 10:27:42;;;;;;;16.75;6.80;;;42.20;39.80;;;;;;5055115;28;20383;-73
2021/07/14 10:30:08;;;;;;;19.73;6.80;;;42.30;39.90;;;;;;5055406;28;20421;-74
2021/07/14 10:32:35;;;;;;;18.73;6.28;;;42.30;39.60;;;;;;5055310;28;20033;-73
2021/07/14 10:35:01;;;;;;;8.88;6.30;;;42.40;39.30;;;;;;5054910;28;20394;-73
2021/07/14 10:37:28;;;;;;;14.63;6.00;;;42.70;39.80;;;;;;5055270;28;20021;-75
2021/07/14 10:39:55;;;;;;;7.70;5.50;;;42.90;39.70;;;;;;5054991;28;20021;-74
2021/07/14 10:42:21;;;;;;;14.00;6.43;;;43.10;39.20;;;;;;5055116;28;20028;-74
2021/07/14 10:44:48;;;;;;;11.27;6.60;;;43.10;39.00;;;;;;5055038;28;20032;-76
2021/07/14 10:47:15;;;;;;;15.48;6.50;;;43.30;39.50;;;;;;5055378;28;20029;-74
2021/07/14 10:49:41;;;;;;;10.35;6.47;;;43.50;39.80;;;;;;5054284;28;20017;-74
2021/07/14 10:52:09;;;;;;;7.95;5.82;;;43.60;39.70;;;;;;5053873;28;20048;-74
2021/07/14 10:54:35;;;;;;;6.70;6.10;;;43.90;39.30;;;;;;5054778;28;20056;-74
2021/07/14 10:57:04;;;;;;;8.63;6.10;;;44.00;38.40;;;;;;5053250;28;20092;-73
2021/07/14 10:59:31;;;;;;;9.15;5.75;;;44.10;38.40;;;;;;5054665;28;20021;-73
2021/07/14 11:01:56;;;;;;;12.43;5.97;;;44.10;38.30;;;;;;5055042;28;20375;-73
2021/07/14 11:04:25;;;;;;;12.00;5.95;;;44.10;38.20;;;;;;5054044;28;20087;-73
2021/07/14 11:06:54;;;;;;;12.43;5.55;;;44.30;38.30;;;;;;5069843;28;20493;-75
2021/07/14 11:09:45;;;;;;;7.97;5.55;;;44.40;38.40;;;;;;5069623;28;20025;-73
2021/07/14 11:12:13;;;;;;;9.48;5.38;;;44.60;38.30;;;;;;5054387;28;20486;-74
2021/07/14 11:14:42;;;;;;;9.60;4.53;;;44.80;38.10;;;;;;5054325;28;20479;-73
2021/07/14 11:17:09;;;;;;;9.68;4.88;;;45.00;37.40;;;;;;5053609;28;20490;-74
2021/07/14 11:19:44;;;;;;;8.75;3.80;;;45.00;36.70;;;;;;5054141;28;20025;-73
2021/07/14 11:22:11;;;;;;;6.88;4.03;;;45.20;36.50;;;;;;5054246;28;20032;-73
2021/07/14 11:24:39;;;;;;;6.22;3.83;;;45.20;36.00;;;;;;5053836;28;20029;-73
2021/07/14 11:27:27;;;;;;;7.85;3.92;;;45.40;35.70;;;;;;5053847;28;20348;-74
2021/07/14 11:30:02;;;;;;;8.68;4.25;;;45.40;35.40;;;;;;5053605;28;20411;-74
2021/07/14 11:32:38;;;;;;;6.30;4.03;;;45.40;35.20;;;;;;5054007;28;20035;-76
2021/07/14 11:35:21;;;;;;;11.38;4.40;;;45.40;35.00;;;;;;5053292;28;20028;-73
2021/07/14 11:37:55;;;;;;;6.07;3.63;;;45.40;34.90;;;;;;5053399;28;20075;-73
2021/07/14 11:40:21;;;;;;;6.13;3.38;;;45.50;34.40;;;;;;5053937;28;20041;-75
2021/07/14 11:43:12;;;;;;;10.07;4.10;;;45.60;34.20;;;;;;5053951;28;20172;-72
2021/07/14 11:46:05;;;;;;;14.02;3.83;;;45.70;33.90;;;;;;5054134;28;20036;-74
2021/07/14 11:48:33;;;;;;;7.28;3.55;;;45.90;33.70;;;;;;5054584;28;20028;-74
2021/07/14 11:51:06;;;;;;;8.98;4.20;;;46.10;33.40;;;;;;5053887;28;20033;-73
2021/07/14 11:53:37;;;;;;;5.75;4.03;;;46.30;32.70;;;;;;5053881;28;20057;-74
2021/07/14 11:56:29;;;;;;;13.93;3.72;;;46.60;32.90;;;;;;5053535;28;20028;-75
2021/07/14 11:59:12;;;;;;;5.30;3.20;;;46.90;32.70;;;;;;5053634;28;20472;-73
2021/07/14 12:01:37;;;;;;;7.03;3.38;;;47.00;32.60;;;;;;5054081;28;20106;-74
2021/07/14 12:04:05;;;;;;;7.40;3.50;;;47.20;32.50;;;;;;5053548;28;20455;-74
2021/07/14 12:06:34;;;;;;;8.02;3.10;;;47.30;32.40;;;;;;5053713;28;20032;-75
2021/07/14 12:09:14;;;;;;;4.68;3.25;;;47.30;32.00;;;;;;5053423;28;20021;-74
2021/07/14 12:11:43;;;;;;;17.42;4.10;;;47.30;32.00;;;;;;5053730;28;20116;-75
2021/07/14 12:14:15;;;;;;;9.88;2.97;;;47.50;31.80;;;;;;5053684;28;20029;-74
2021/07/14 12:16:46;;;;;;;6.03;2.90;;;47.70;31.50;;;;;;5053471;28;20091;-73
2021/07/14 12:19:12;;;;;;;5.85;3.10;;;47.90;31.40;;;;;;5053418;28;20029;-77
2021/07/14 12:21:40;;;;;;;11.32;3.20;;;48.00;31.40;;;;;;5053250;28;20036;-76
2021/07/14 12:24:24;;;;;;;6.47;2.75;;;48.20;31.20;;;;;;5053170;28;20033;-74
2021/07/14 12:27:20;;;;;;;7.22;3.35;;;48.30;31.10;;;;;;5053163;28;20078;-74
2021/07/14 12:29:57;;;;;;;3.53;3.00;;;48.50;31.00;;;;;;5052901;28;20037;-74
2021/07/14 12:32:38;;;;;;;8.43;3.30;;;48.50;30.80;;;;;;5053532;28;20056;-74
2021/07/14 12:35:22;;;;;;;9.23;3.03;;;48.50;30.70;;;;;;5053270;28;20044;-74
2021/07/14 12:37:54;;;;;;;7.65;3.25;;;48.50;30.70;;;;;;5052996;28;20028;-73
2021/07/14 12:40:40;;;;;;;5.07;2.90;;;48.70;30.40;;;;;;5052886;28;20033;-73
2021/07/14 12:43:10;;;;;;;4.15;3.13;;;48.80;30.20;;;;;;5053326;28;20147;-73
2021/07/14 12:45:39;;;;;;;4.38;2.70;;;48.90;30.00;;;;;;5052901;28;20036;-75
2021/07/14 12:48:07;;;;;;;5.47;2.85;;;49.00;30.10;;;;;;5052879;28;20028;-75
2021/07/14 12:50:35;;;;;;;7.00;2.72;;;49.10;30.00;;;;;;5053497;28;20025;-73
2021/07/14 12:53:02;;;;;;;10.13;2.88;;;49.30;30.00;;;;;;5052678;28;20048;-73
2021/07/14 12:55:29;;;;;;;7.13;3.00;;;49.40;30.00;;;;;;5053287;28;20103;-76